createdAt,value
2018-12-13T00:02:06.979Z,99.90
2018-12-13T00:04:33.163Z,99.90
2018-12-13T00:07:00.447Z,99.90
2018-12-13T00:09:26.676Z,99.90
2018-12-13T00:11:52.828Z,99.90
2018-12-13T00:14:18.825Z,99.90
2018-12-13T00:16:44.990Z,99.90
2018-12-13T00:19:11.182Z,99.90
2018-12-13T00:21:37.375Z,99.90
2018-12-13T00:24:03.682Z,99.90
2018-12-13T00:26:30.128Z,99.90
2018-12-13T00:28:56.383Z,99.90
2018-12-13T00:31:22.624Z,99.90
2018-12-13T00:33:48.869Z,99.90
2018-12-13T00:36:15.060Z,99.90
2018-12-13T00:38:43.414Z,99.90
2018-12-13T00:41:09.735Z,99.90
2018-12-13T00:43:35.835Z,99.90
2018-12-13T00:46:01.887Z,99.90
2018-12-13T00:48:27.961Z,99.90
2018-12-13T00:50:54.136Z,99.90
2018-12-13T00:53:20.216Z,99.90
2018-12-13T00:55:46.313Z,99.90
2018-12-13T00:58:12.466Z,99.90
2018-12-13T01:00:38.648Z,99.90
2018-12-13T01:03:04.973Z,99.90
2018-12-13T01:05:33.329Z,99.90
2018-12-13T01:07:59.597Z,99.90
2018-12-13T01:10:25.958Z,99.90
2018-12-13T01:12:51.995Z,99.90
2018-12-13T01:15:18.204Z,99.90
2018-12-13T01:17:44.448Z,99.90
2018-12-13T01:20:10.628Z,99.90
2018-12-13T01:22:36.898Z,99.90
2018-12-13T01:25:03.286Z,99.90
2018-12-13T01:27:29.363Z,99.90
2018-12-13T01:29:55.560Z,99.90
2018-12-13T01:32:22.351Z,99.90
2018-12-13T01:34:55.602Z,99.90
2018-12-13T01:37:22.916Z,99.90
2018-12-13T01:39:49.028Z,99.90
2018-12-13T01:42:15.390Z,99.90
2018-12-13T01:44:41.542Z,99.90
2018-12-13T01:47:07.590Z,99.90
2018-12-13T01:49:33.854Z,99.90
2018-12-13T01:52:00.010Z,99.90
2018-12-13T01:54:26.274Z,99.90
2018-12-13T01:56:52.625Z,99.90
2018-12-13T01:59:18.806Z,99.90
2018-12-13T02:01:45.056Z,99.90
2018-12-13T02:04:11.016Z,99.90
2018-12-13T02:06:42.504Z,99.90
2018-12-13T02:09:23.732Z,99.90
2018-12-13T02:11:58.208Z,99.90
2018-12-13T02:14:29.498Z,99.90
2018-12-13T02:16:55.700Z,99.90
2018-12-13T02:19:22.038Z,99.90
2018-12-13T02:21:48.191Z,99.90
2018-12-13T02:24:14.280Z,99.90
2018-12-13T02:26:40.332Z,99.90
2018-12-13T02:29:06.586Z,99.90
2018-12-13T02:31:32.845Z,99.90
2018-12-13T02:33:59.023Z,99.90
2018-12-13T02:36:27.438Z,99.90
2018-12-13T02:38:54.638Z,99.90
2018-12-13T02:41:25.565Z,99.90
2018-12-13T02:43:51.702Z,99.90
2018-12-13T02:46:17.854Z,99.90
2018-12-13T02:48:44.048Z,99.90
2018-12-13T02:51:10.332Z,99.90
2018-12-13T02:53:36.609Z,99.90
2018-12-13T02:56:02.923Z,99.90
2018-12-13T02:58:29.196Z,99.90
2018-12-13T03:00:55.412Z,99.90
2018-12-13T03:03:21.562Z,99.90
2018-12-13T03:05:47.923Z,99.90
2018-12-13T03:08:14.069Z,99.90
2018-12-13T03:10:40.230Z,99.90
2018-12-13T03:13:07.460Z,99.90
2018-12-13T03:15:33.792Z,99.90
2018-12-13T03:18:00.151Z,99.90
2018-12-13T03:20:26.288Z,99.90
2018-12-13T03:22:52.419Z,99.90
2018-12-13T03:25:26.435Z,99.90
2018-12-13T03:27:57.722Z,99.90
2018-12-13T03:30:31.911Z,99.90
2018-12-13T03:32:58.132Z,99.90
2018-12-13T03:35:25.186Z,99.90
2018-12-13T03:37:52.378Z,99.90
2018-12-13T03:40:18.407Z,99.90
2018-12-13T03:42:44.458Z,99.90
2018-12-13T03:45:10.616Z,99.90
2018-12-13T03:47:36.717Z,99.90
2018-12-13T03:50:04.072Z,99.90
2018-12-13T03:52:30.343Z,99.90
2018-12-13T03:54:56.522Z,99.90
2018-12-13T03:57:22.670Z,99.90
2018-12-13T03:59:48.894Z,99.90
2018-12-13T04:02:15.202Z,99.90
2018-12-13T04:04:41.268Z,99.90
2018-12-13T04:07:07.447Z,99.90
2018-12-13T04:09:33.617Z,99.90
2018-12-13T04:11:59.686Z,99.90
2018-12-13T04:14:25.831Z,99.90
2018-12-13T04:16:52.404Z,99.90
2018-12-13T04:19:18.498Z,99.90
2018-12-13T04:21:44.538Z,99.90
2018-12-13T04:24:10.608Z,99.90
2018-12-13T04:26:36.774Z,99.90
2018-12-13T04:29:08.867Z,99.90
2018-12-13T04:31:44.255Z,99.90
2018-12-13T04:34:12.556Z,99.90
2018-12-13T04:36:38.783Z,99.90
2018-12-13T04:39:05.983Z,99.90
2018-12-13T04:41:32.296Z,99.90
2018-12-13T04:43:58.387Z,99.90
2018-12-13T04:46:24.718Z,99.90
2018-12-13T04:48:50.877Z,99.90
2018-12-13T04:51:16.987Z,99.90
2018-12-13T04:53:43.711Z,99.90
2018-12-13T04:56:09.955Z,99.90
2018-12-13T04:58:35.980Z,99.90
2018-12-13T05:01:02.154Z,99.90
2018-12-13T05:03:28.429Z,99.90
2018-12-13T05:05:55.376Z,99.90
2018-12-13T05:08:21.669Z,99.90
2018-12-13T05:10:50.338Z,99.90
2018-12-13T05:13:17.236Z,99.90
2018-12-13T05:15:43.563Z,99.90
2018-12-13T05:18:09.716Z,99.90
2018-12-13T05:20:35.942Z,99.90
2018-12-13T05:23:02.244Z,99.90
2018-12-13T05:25:28.402Z,99.90
2018-12-13T05:28:02.382Z,99.90
2018-12-13T05:30:29.627Z,99.90
2018-12-13T05:32:56.053Z,99.90
2018-12-13T05:35:22.313Z,99.90
2018-12-13T05:37:48.564Z,99.90
2018-12-13T05:40:14.857Z,99.90
2018-12-13T05:42:41.087Z,99.90
2018-12-13T05:45:08.341Z,99.90
2018-12-13T05:47:34.689Z,99.90
2018-12-13T05:50:00.905Z,99.90
2018-12-13T05:52:28.199Z,99.90
2018-12-13T05:54:54.387Z,99.90
2018-12-13T05:57:21.248Z,99.90
2018-12-13T05:59:47.446Z,99.90
2018-12-13T06:02:13.648Z,99.90
2018-12-13T06:04:39.873Z,99.90
2018-12-13T06:07:06.462Z,99.90
2018-12-13T06:09:36.514Z,99.90
2018-12-13T06:12:03.659Z,99.90
2018-12-13T06:14:31.003Z,99.90
2018-12-13T06:16:57.162Z,99.90
2018-12-13T06:19:26.670Z,99.90
2018-12-13T06:21:53.610Z,99.90
2018-12-13T06:24:19.906Z,99.90
2018-12-13T06:26:46.159Z,99.90
2018-12-13T06:29:12.439Z,99.90
2018-12-13T06:31:38.692Z,99.90
2018-12-13T06:34:04.867Z,99.90
2018-12-13T06:36:31.050Z,99.90
2018-12-13T06:38:57.148Z,99.90
2018-12-13T06:41:23.396Z,99.90
2018-12-13T06:43:49.842Z,99.90
2018-12-13T06:46:15.989Z,99.90
2018-12-13T06:48:42.342Z,99.90
2018-12-13T06:51:09.567Z,99.90
2018-12-13T06:53:38.142Z,99.90
2018-12-13T06:56:06.386Z,99.90
2018-12-13T06:58:33.711Z,99.90
2018-12-13T07:01:00.946Z,99.90
2018-12-13T07:03:27.387Z,99.90
2018-12-13T07:05:54.655Z,99.90
2018-12-13T07:08:20.860Z,99.90
2018-12-13T07:10:47.141Z,99.90
2018-12-13T07:13:13.429Z,99.90
2018-12-13T07:15:39.521Z,99.90
2018-12-13T07:18:06.722Z,99.90
2018-12-13T07:20:33.055Z,99.90
2018-12-13T07:22:59.165Z,99.90
2018-12-13T07:25:25.310Z,99.90
2018-12-13T07:27:59.274Z,99.90
2018-12-13T07:30:26.848Z,99.90
2018-12-13T07:33:01.246Z,99.90
2018-12-13T07:35:27.459Z,99.90
2018-12-13T07:37:54.476Z,99.90
2018-12-13T07:40:22.487Z,99.90
2018-12-13T07:42:49.604Z,99.90
2018-12-13T07:45:15.974Z,99.90
2018-12-13T07:47:43.014Z,99.90
2018-12-13T07:50:09.395Z,99.90
2018-12-13T07:52:36.566Z,99.90
2018-12-13T07:55:03.375Z,99.90
2018-12-13T07:57:31.684Z,99.90
2018-12-13T07:59:58.751Z,99.90
2018-12-13T08:02:27.001Z,99.90
2018-12-13T08:05:01.684Z,99.90
2018-12-13T08:07:29.702Z,99.90
2018-12-13T08:09:56.082Z,99.90
2018-12-13T08:12:25.727Z,99.90
2018-12-13T08:14:52.062Z,99.90
2018-12-13T08:17:20.111Z,99.90
2018-12-13T08:19:46.476Z,99.90
2018-12-13T08:22:13.792Z,99.90
2018-12-13T08:24:40.049Z,99.90
2018-12-13T08:27:06.638Z,99.90
2018-12-13T08:29:32.778Z,99.90
2018-12-13T08:31:59.231Z,99.90
2018-12-13T08:34:25.633Z,99.90
2018-12-13T08:36:51.945Z,99.90
2018-12-13T08:39:19.032Z,99.90
2018-12-13T08:41:46.547Z,99.90
2018-12-13T08:44:13.132Z,99.90
2018-12-13T08:46:39.253Z,99.90
2018-12-13T08:49:06.139Z,99.90
2018-12-13T08:54:26.348Z,99.90
2018-12-13T08:56:52.763Z,99.90
2018-12-13T08:59:20.069Z,99.90
2018-12-13T09:01:46.623Z,99.90
2018-12-13T09:04:12.782Z,99.90
2018-12-13T09:06:39.799Z,99.90
2018-12-13T09:09:06.372Z,99.90
2018-12-13T09:11:42.654Z,99.90
2018-12-13T09:14:09.920Z,99.90
2018-12-13T09:16:36.195Z,99.90
2018-12-13T09:19:02.652Z,99.90
2018-12-13T09:21:29.318Z,99.90
2018-12-13T09:23:55.594Z,99.90
2018-12-13T09:26:21.824Z,99.90
2018-12-13T09:28:49.123Z,99.90
2018-12-13T09:31:15.675Z,99.90
2018-12-13T09:33:41.762Z,99.90
2018-12-13T09:36:08.168Z,99.90
2018-12-13T09:38:39.777Z,99.90
2018-12-13T09:41:03.316Z,99.90
2018-12-13T09:43:29.756Z,99.90
2018-12-13T09:45:55.900Z,99.90
2018-12-13T09:48:22.006Z,99.90
2018-12-13T09:50:48.056Z,99.90
2018-12-13T09:53:14.295Z,99.90
2018-12-13T09:55:40.536Z,99.90
2018-12-13T09:58:06.806Z,99.90
2018-12-13T10:00:32.957Z,99.90
2018-12-13T10:03:01.149Z,99.90
2018-12-13T10:05:31.374Z,99.90
2018-12-13T10:07:57.698Z,99.90
2018-12-13T10:10:24.056Z,99.90
2018-12-13T10:12:50.374Z,99.90
2018-12-13T10:15:17.575Z,99.90
2018-12-13T10:17:43.807Z,99.90
2018-12-13T10:20:10.945Z,99.90
2018-12-13T10:22:37.158Z,99.90
2018-12-13T10:25:03.975Z,99.90
2018-12-13T10:27:30.262Z,99.90
2018-12-13T10:29:56.435Z,99.90
2018-12-13T10:32:22.799Z,99.90
2018-12-13T10:34:49.145Z,99.90
2018-12-13T10:37:15.272Z,99.90
2018-12-13T10:39:41.576Z,99.90
2018-12-13T10:42:11.916Z,99.90
2018-12-13T10:44:40.325Z,99.90
2018-12-13T10:47:06.427Z,99.90
2018-12-13T10:49:33.828Z,99.90
2018-12-13T10:52:01.190Z,99.90
2018-12-13T10:54:27.550Z,99.90
2018-12-13T10:56:53.869Z,99.90
2018-12-13T10:59:23.691Z,99.90
2018-12-13T11:02:01.196Z,99.90
2018-12-13T11:04:27.919Z,99.90
2018-12-13T11:06:54.203Z,99.90
2018-12-13T11:09:20.573Z,99.90
2018-12-13T11:11:46.836Z,99.90
2018-12-13T11:14:13.144Z,99.90
2018-12-13T11:16:39.816Z,99.90
2018-12-13T11:19:05.863Z,99.90
2018-12-13T11:21:32.467Z,99.90
2018-12-13T11:23:59.948Z,99.90
2018-12-13T11:26:26.187Z,99.90
2018-12-13T11:29:04.812Z,99.90
2018-12-13T11:31:31.045Z,99.90
2018-12-13T11:33:59.099Z,99.90
2018-12-13T11:36:26.352Z,99.90
2018-12-13T11:38:58.545Z,99.90
2018-12-13T11:41:26.153Z,99.90
2018-12-13T11:43:55.802Z,99.90
2018-12-13T11:46:22.092Z,99.90
2018-12-13T11:48:48.332Z,99.90
2018-12-13T11:51:17.344Z,99.90
2018-12-13T11:53:43.821Z,99.90
2018-12-13T11:56:11.108Z,99.90
2018-12-13T11:58:38.330Z,99.90
2018-12-13T12:01:04.613Z,99.90
2018-12-13T12:03:30.881Z,99.90
2018-12-13T12:05:57.089Z,99.90
2018-12-13T12:08:24.464Z,99.90
2018-12-13T12:10:50.810Z,99.90
2018-12-13T12:13:17.067Z,99.80
2018-12-13T12:15:43.483Z,99.90
2018-12-13T12:18:16.392Z,99.90
2018-12-13T12:20:43.424Z,99.90
2018-12-13T12:23:10.713Z,99.90
2018-12-13T12:25:37.925Z,99.90
2018-12-13T12:28:04.026Z,99.70
2018-12-13T12:30:31.418Z,99.50
2018-12-13T12:32:57.691Z,99.20
2018-12-13T12:35:28.176Z,99.10
2018-12-13T12:37:55.351Z,99.00
2018-12-13T12:40:22.578Z,98.30
2018-12-13T12:42:49.206Z,98.10
2018-12-13T12:45:16.889Z,98.10
2018-12-13T12:47:43.470Z,98.30
2018-12-13T12:50:10.018Z,97.90
2018-12-13T12:52:36.095Z,97.50
2018-12-13T12:55:02.778Z,96.70
2018-12-13T12:57:30.404Z,96.00
2018-12-13T12:59:56.542Z,94.80
2018-12-13T13:02:31.690Z,94.20
2018-12-13T13:05:03.872Z,94.60
2018-12-13T13:07:31.005Z,94.90
2018-12-13T13:10:00.059Z,95.10
2018-12-13T13:12:27.064Z,95.20
2018-12-13T13:14:53.332Z,95.80
2018-12-13T13:17:19.616Z,95.40
2018-12-13T13:19:45.841Z,95.70
2018-12-13T13:22:14.184Z,95.50
2018-12-13T13:24:41.418Z,95.20
2018-12-13T13:27:08.858Z,95.00
2018-12-13T13:29:35.168Z,95.10
2018-12-13T13:32:01.489Z,94.70
2018-12-13T13:34:28.756Z,94.30
2018-12-13T13:36:54.990Z,93.90
2018-12-13T13:39:21.039Z,93.40
2018-12-13T13:41:47.350Z,93.10
2018-12-13T13:44:15.922Z,93.10
2018-12-13T13:49:38.142Z,93.60
2018-12-13T13:52:04.346Z,93.30
2018-12-13T13:54:30.548Z,93.20
2018-12-13T13:56:57.813Z,93.80
2018-12-13T13:59:24.159Z,94.30
2018-12-13T14:01:50.475Z,94.70
2018-12-13T14:04:18.712Z,94.70
2018-12-13T14:06:44.942Z,94.80
2018-12-13T14:09:13.354Z,94.60
2018-12-13T14:11:39.992Z,94.30
2018-12-13T14:14:07.397Z,94.50
2018-12-13T14:16:37.659Z,94.80
2018-12-13T14:19:04.099Z,96.30
2018-12-13T14:21:30.568Z,96.30
2018-12-13T14:23:56.746Z,94.80
2018-12-13T14:26:23.352Z,94.30
2018-12-13T14:28:49.615Z,93.90
2018-12-13T14:31:15.867Z,93.90
2018-12-13T14:33:45.977Z,94.50
2018-12-13T14:36:14.054Z,94.20
2018-12-13T14:38:40.279Z,94.60
2018-12-13T14:41:06.556Z,96.30
2018-12-13T14:43:32.917Z,96.00
2018-12-13T14:46:00.144Z,96.20
2018-12-13T14:48:26.371Z,96.60
2018-12-13T14:50:54.664Z,96.60
2018-12-13T14:53:20.891Z,97.10
2018-12-13T14:55:47.154Z,97.30
2018-12-13T14:58:13.443Z,97.30
2018-12-13T15:00:40.225Z,98.10
2018-12-13T15:03:10.968Z,97.80
2018-12-13T15:05:37.246Z,97.10
2018-12-13T15:08:10.435Z,97.30
2018-12-13T15:10:46.517Z,97.50
2018-12-13T15:13:12.604Z,98.00
2018-12-13T15:15:39.974Z,98.00
2018-12-13T15:18:06.912Z,97.90
2018-12-13T15:20:33.152Z,97.60
2018-12-13T15:23:04.547Z,97.60
2018-12-13T15:25:32.689Z,98.10
2018-12-13T15:27:58.892Z,98.20
2018-12-13T15:30:27.244Z,98.40
2018-12-13T15:32:53.615Z,98.20
2018-12-13T15:35:19.846Z,97.90
2018-12-13T15:37:46.310Z,98.00
2018-12-13T15:40:17.429Z,97.70
2018-12-13T15:42:43.774Z,98.00
2018-12-13T15:45:10.874Z,98.30
2018-12-13T15:47:36.941Z,98.80
2018-12-13T15:50:04.967Z,99.00
2018-12-13T15:52:31.224Z,98.80
2018-12-13T15:54:57.328Z,98.70
2018-12-13T15:57:26.546Z,98.50
2018-12-13T15:59:53.153Z,98.90
2018-12-13T16:02:19.308Z,98.90
2018-12-13T16:04:45.563Z,99.00
2018-12-13T16:07:15.657Z,98.70
2018-12-13T16:09:50.979Z,98.90
2018-12-13T16:12:29.232Z,98.90
2018-12-13T16:14:55.500Z,98.70
2018-12-13T16:17:21.806Z,98.90
2018-12-13T16:19:48.251Z,98.80
2018-12-13T16:22:14.670Z,98.60
2018-12-13T16:24:41.911Z,98.90
2018-12-13T16:27:09.099Z,98.80
2018-12-13T16:29:36.616Z,99.40
2018-12-13T16:32:06.976Z,99.10
2018-12-13T16:34:34.181Z,98.80
2018-12-13T16:37:00.442Z,98.80
2018-12-13T16:39:26.908Z,98.70
2018-12-13T16:41:53.331Z,98.60
2018-12-13T16:44:19.685Z,98.60
2018-12-13T16:46:51.709Z,99.10
2018-12-13T16:49:18.411Z,98.30
2018-12-13T16:51:53.316Z,98.30
2018-12-13T16:54:19.665Z,98.10
2018-12-13T16:56:46.999Z,97.70
2018-12-13T16:59:13.295Z,97.60
2018-12-13T17:01:39.735Z,97.60
2018-12-13T17:07:00.485Z,97.70
2018-12-13T17:09:30.677Z,97.80
2018-12-13T17:11:59.045Z,97.90
2018-12-13T17:14:29.175Z,97.80
2018-12-13T17:16:56.544Z,97.90
2018-12-13T17:19:27.028Z,97.70
2018-12-13T17:21:55.203Z,97.90
2018-12-13T17:24:22.537Z,98.10
2018-12-13T17:26:48.922Z,98.10
2018-12-13T17:29:15.135Z,97.90
2018-12-13T17:31:42.339Z,98.10
2018-12-13T17:34:08.641Z,98.40
2018-12-13T17:36:35.955Z,98.10
2018-12-13T17:39:05.599Z,98.00
2018-12-13T17:41:32.897Z,98.30
2018-12-13T17:43:59.389Z,98.80
2018-12-13T17:46:26.859Z,99.10
2018-12-13T17:48:54.144Z,98.50
2018-12-13T17:51:20.466Z,98.40
2018-12-13T17:53:46.993Z,98.30
2018-12-13T17:56:13.421Z,98.40
2018-12-13T17:58:44.559Z,98.80
2018-12-13T18:01:10.820Z,98.60
2018-12-13T18:03:37.096Z,98.40
2018-12-13T18:06:03.579Z,98.40
2018-12-13T18:08:31.090Z,98.40
2018-12-13T18:10:58.382Z,98.70
2018-12-13T18:13:24.842Z,99.00
2018-12-13T18:15:57.201Z,99.00
2018-12-13T18:18:27.315Z,98.90
2018-12-13T18:20:54.035Z,98.90
2018-12-13T18:23:22.402Z,99.20
2018-12-13T18:25:49.996Z,99.10
2018-12-13T18:28:18.447Z,99.20
2018-12-13T18:30:45.029Z,99.40
2018-12-13T18:33:11.624Z,99.50
2018-12-13T18:35:39.246Z,99.60
2018-12-13T18:38:05.860Z,99.60
2018-12-13T18:40:35.639Z,99.30
2018-12-13T18:43:00.982Z,99.40
2018-12-13T18:45:29.983Z,99.80
2018-12-13T18:47:56.374Z,99.90
2018-12-13T18:50:23.958Z,99.60
2018-12-13T18:52:50.578Z,99.50
2018-12-13T18:55:17.133Z,99.80
2018-12-13T18:57:43.513Z,99.90
2018-12-13T19:00:11.752Z,99.30
2018-12-13T19:02:38.895Z,99.20
2018-12-13T19:05:05.921Z,99.10
2018-12-13T19:10:30.378Z,99.30
2018-12-13T19:12:57.956Z,99.20
2018-12-13T19:15:25.264Z,99.60
2018-12-13T19:17:52.644Z,99.90
2018-12-13T19:20:19.832Z,99.80
2018-12-13T19:22:47.665Z,99.90
2018-12-13T19:25:14.363Z,99.80
2018-12-13T19:27:42.128Z,99.60
2018-12-13T19:30:08.799Z,99.60
2018-12-13T19:32:36.420Z,99.50
2018-12-13T19:35:05.508Z,99.70
2018-12-13T19:37:31.879Z,99.90
2018-12-13T19:40:02.426Z,99.90
2018-12-13T19:42:34.395Z,99.90
2018-12-13T19:45:14.648Z,99.80
2018-12-13T19:47:42.504Z,99.70
2018-12-13T19:50:09.937Z,99.50
2018-12-13T19:52:36.618Z,99.50
2018-12-13T19:55:04.865Z,99.50
2018-12-13T19:57:34.636Z,99.90
2018-12-13T20:00:03.971Z,99.90
2018-12-13T20:02:31.559Z,99.80
2018-12-13T20:04:58.254Z,99.80
2018-12-13T20:07:25.525Z,99.90
2018-12-13T20:09:52.143Z,99.90
2018-12-13T20:12:18.821Z,99.90
2018-12-13T20:14:46.080Z,99.90
2018-12-13T20:17:14.255Z,99.90
2018-12-13T20:19:42.358Z,99.90
2018-12-13T20:22:09.088Z,99.90
2018-12-13T20:24:39.096Z,99.90
2018-12-13T20:27:07.822Z,99.90
2018-12-13T20:29:38.935Z,99.90
2018-12-13T20:32:06.138Z,99.90
2018-12-13T20:34:32.699Z,99.90
2018-12-13T20:36:58.983Z,99.90
2018-12-13T20:39:25.583Z,99.90
2018-12-13T20:41:54.509Z,99.90
2018-12-13T20:44:21.733Z,99.90
2018-12-13T20:46:48.203Z,99.90
2018-12-13T20:49:15.358Z,99.90
2018-12-13T20:51:41.808Z,99.90
2018-12-13T20:54:08.166Z,99.90
2018-12-13T20:56:34.906Z,99.90
2018-12-13T20:59:01.338Z,99.90
2018-12-13T21:01:27.912Z,99.90
2018-12-13T21:03:54.897Z,99.90
2018-12-13T21:06:21.105Z,99.90
2018-12-13T21:08:49.591Z,99.90
2018-12-13T21:11:16.843Z,99.90
2018-12-13T21:13:43.598Z,99.90
2018-12-13T21:16:09.949Z,99.90
2018-12-13T21:18:36.460Z,99.90
2018-12-13T21:21:03.812Z,99.90
2018-12-13T21:23:31.270Z,99.90
2018-12-13T21:25:57.675Z,99.90
2018-12-13T21:28:28.276Z,99.90
2018-12-13T21:30:54.607Z,99.90
2018-12-13T21:33:23.013Z,99.90
2018-12-13T21:35:50.718Z,99.90
2018-12-13T21:38:16.977Z,99.90
2018-12-13T21:40:44.721Z,99.90
2018-12-13T21:43:12.647Z,99.90
2018-12-13T21:45:39.048Z,99.90
2018-12-13T21:48:06.411Z,99.90
2018-12-13T21:50:34.492Z,99.90
2018-12-13T21:53:01.480Z,99.90
2018-12-13T21:55:27.581Z,99.90
2018-12-13T21:57:53.722Z,99.90
2018-12-13T22:00:22.123Z,99.90
2018-12-13T22:02:50.096Z,99.90
2018-12-13T22:05:16.434Z,99.90
2018-12-13T22:07:45.249Z,99.90
2018-12-13T22:10:13.758Z,99.90
2018-12-13T22:12:41.896Z,99.90
2018-12-13T22:15:11.793Z,99.90
2018-12-13T22:17:38.188Z,99.90
2018-12-13T22:20:05.829Z,99.90
2018-12-13T22:22:32.154Z,99.90
2018-12-13T22:24:59.058Z,99.90
2018-12-13T22:27:26.192Z,99.90
2018-12-13T22:29:52.531Z,99.90
2018-12-13T22:32:18.746Z,99.90
2018-12-13T22:34:46.885Z,99.90
2018-12-13T22:37:14.377Z,99.90
2018-12-13T22:39:43.690Z,99.90
2018-12-13T22:42:10.592Z,99.90
2018-12-13T22:44:36.733Z,99.90
2018-12-13T22:47:03.114Z,99.90
2018-12-13T22:49:29.395Z,99.90
2018-12-13T22:51:55.499Z,99.90
2018-12-13T22:54:21.982Z,99.90
2018-12-13T22:56:53.472Z,99.90
2018-12-13T22:59:27.503Z,99.90
2018-12-13T23:01:54.844Z,99.90
2018-12-13T23:04:21.082Z,99.90
2018-12-13T23:06:47.412Z,99.90
2018-12-13T23:09:13.812Z,99.90
2018-12-13T23:11:46.990Z,99.90
2018-12-13T23:14:13.333Z,99.90
2018-12-13T23:16:39.405Z,99.90
2018-12-13T23:19:13.309Z,99.90
2018-12-13T23:21:40.827Z,99.90
2018-12-13T23:27:29.839Z,99.90
2018-12-13T23:29:57.973Z,99.90
2018-12-13T23:32:24.176Z,99.90
2018-12-13T23:34:50.945Z,99.90
2018-12-13T23:37:17.491Z,99.90
2018-12-13T23:39:43.952Z,99.90
2018-12-13T23:42:10.492Z,99.90
2018-12-13T23:44:36.798Z,99.90
2018-12-13T23:47:04.262Z,99.90
2018-12-13T23:49:34.590Z,99.90
2018-12-13T23:52:00.866Z,99.90
2018-12-13T23:54:44.360Z,99.90
2018-12-13T23:57:11.654Z,99.90
2018-12-13T23:59:37.747Z,99.90
